Time;durP1;ratioP1;P1;durP2;ratioP2;P2;SDS_P1;SDS_P2;PMS_P1;PMS_P2;Temp;Humidity;BMP_temperature;BMP_pressure;BME280_temperature;BME280_humidity;BME280_pressure;Samples;Min_cycle;Max_cycle;Signal;HPM_P1;HPM_P2
2023/08/23 00:00:14;;;;;;;4.22;2.42;;;;;;;;;;461023;29;1319;-77
2023/08/23 00:00:30;;;;;;;5.65;2.60;;;;;;;;;;475354;28;1483;-79
2023/08/23 00:00:45;;;;;;;5.67;2.70;;;;;;;;;;460226;28;1064;-79
2023/08/23 00:01:01;;;;;;;4.85;2.60;;;;;;;;;;463676;28;1280;-79
2023/08/23 00:01:17;;;;;;;4.65;2.45;;;;;;;;;;472493;28;1062;-78
2023/08/23 00:01:32;;;;;;;5.03;2.63;;;;;;;;;;494233;28;1189;-79
2023/08/23 00:01:48;;;;;;;5.20;2.70;;;;;;;;;;461924;29;1122;-80
2023/08/23 00:02:04;;;;;;;4.40;2.50;;;;;;;;;;461351;29;1433;-79
2023/08/23 00:02:19;;;;;;;3.80;2.50;;;;;;;;;;476241;29;1571;-79
2023/08/23 00:02:35;;;;;;;4.77;2.80;;;;;;;;;;490484;28;936;-80
2023/08/23 00:02:50;;;;;;;5.20;2.80;;;;;;;;;;464371;28;1473;-78
2023/08/23 00:03:06;;;;;;;5.13;2.70;;;;;;;;;;469440;28;1394;-79
2023/08/23 00:03:21;;;;;;;6.18;2.90;;;;;;;;;;480751;28;1508;-79
2023/08/23 00:03:40;;;;;;;5.07;2.60;;;;;;;;;;487127;28;1337;-80
2023/08/23 00:03:55;;;;;;;3.40;2.60;;;;;;;;;;465297;28;1198;-79
2023/08/23 00:04:11;;;;;;;3.75;2.63;;;;;;;;;;467145;28;1314;-79
2023/08/23 00:04:29;;;;;;;4.88;2.58;;;;;;;;;;500649;28;1175;-79
2023/08/23 00:04:45;;;;;;;5.97;2.60;;;;;;;;;;468466;28;1512;-79
2023/08/23 00:05:01;;;;;;;6.05;2.70;;;;;;;;;;467206;28;1349;-80
2023/08/23 00:05:16;;;;;;;4.93;2.75;;;;;;;;;;471121;28;1133;-79
2023/08/23 00:05:32;;;;;;;5.80;2.87;;;;;;;;;;498981;28;1644;-79
2023/08/23 00:05:47;;;;;;;5.13;2.80;;;;;;;;;;464084;28;1084;-79
2023/08/23 00:06:06;;;;;;;5.53;2.80;;;;;;;;;;463938;28;1382;-78
2023/08/23 00:06:21;;;;;;;5.50;2.70;;;;;;;;;;480847;28;1585;-78
2023/08/23 00:06:37;;;;;;;5.17;2.70;;;;;;;;;;482535;28;1392;-80
2023/08/23 00:06:53;;;;;;;6.25;2.90;;;;;;;;;;459468;28;1320;-80
2023/08/23 00:07:08;;;;;;;6.00;2.90;;;;;;;;;;464758;28;1453;-79
2023/08/23 00:07:24;;;;;;;5.33;2.83;;;;;;;;;;486447;28;1215;-79
2023/08/23 00:08:00;;;;;;;5.75;2.90;;;;;;;;;;483353;28;1232;-79
2023/08/23 00:08:15;;;;;;;3.95;2.70;;;;;;;;;;473219;28;1325;-79
2023/08/23 00:08:30;;;;;;;5.00;2.80;;;;;;;;;;500254;28;1469;-78
2023/08/23 00:08:46;;;;;;;6.07;2.90;;;;;;;;;;464145;28;1378;-79
2023/08/23 00:09:07;;;;;;;5.63;2.83;;;;;;;;;;467363;28;1461;-80
2023/08/23 00:09:25;;;;;;;5.07;2.63;;;;;;;;;;488389;28;1318;-79
2023/08/23 00:10:01;;;;;;;6.45;2.80;;;;;;;;;;483268;28;1461;-79
2023/08/23 00:10:16;;;;;;;6.35;2.80;;;;;;;;;;474137;28;1414;-79
2023/08/23 00:10:32;;;;;;;6.37;2.90;;;;;;;;;;501119;28;1566;-79
2023/08/23 00:10:58;;;;;;;4.72;2.90;;;;;;;;;;461811;28;1128;-79
2023/08/23 00:11:13;;;;;;;5.78;3.00;;;;;;;;;;462048;28;1351;-79
2023/08/23 00:11:34;;;;;;;5.75;2.92;;;;;;;;;;463691;28;1315;-79
2023/08/23 00:11:53;;;;;;;4.70;2.78;;;;;;;;;;461563;29;1418;-79
2023/08/23 00:12:11;;;;;;;3.90;2.80;;;;;;;;;;460763;29;1473;-79
2023/08/23 00:12:26;;;;;;;4.72;3.00;;;;;;;;;;496103;28;1127;-80
2023/08/23 00:12:42;;;;;;;5.90;3.10;;;;;;;;;;473612;28;1366;-79
2023/08/23 00:12:57;;;;;;;5.75;2.97;;;;;;;;;;498676;28;1256;-78
2023/08/23 00:13:13;;;;;;;5.83;3.00;;;;;;;;;;472523;29;1348;-79
2023/08/23 00:13:28;;;;;;;5.80;2.90;;;;;;;;;;497134;29;967;-78
2023/08/23 00:13:45;;;;;;;4.43;2.67;;;;;;;;;;469164;28;1326;-79
2023/08/23 00:14:16;;;;;;;5.78;2.97;;;;;;;;;;462192;28;1488;-78
2023/08/23 00:14:31;;;;;;;4.68;2.78;;;;;;;;;;501934;28;1471;-78
2023/08/23 00:14:47;;;;;;;3.83;2.60;;;;;;;;;;493759;28;2004;-77
2023/08/23 00:15:03;;;;;;;4.10;2.77;;;;;;;;;;500714;28;1366;-78
2023/08/23 00:15:18;;;;;;;4.35;2.83;;;;;;;;;;477136;28;1126;-78
2023/08/23 00:15:34;;;;;;;4.72;2.95;;;;;;;;;;496477;28;1142;-78
2023/08/23 00:15:50;;;;;;;5.85;2.83;;;;;;;;;;467251;28;1124;-78
2023/08/23 00:16:06;;;;;;;6.00;2.88;;;;;;;;;;465685;28;1124;-79
2023/08/23 00:16:21;;;;;;;4.27;2.93;;;;;;;;;;483457;28;1069;-78
2023/08/23 00:16:37;;;;;;;3.85;2.95;;;;;;;;;;491544;28;1765;-79
2023/08/23 00:16:52;;;;;;;5.47;3.03;;;;;;;;;;462672;28;1310;-79
2023/08/23 00:17:08;;;;;;;6.53;2.90;;;;;;;;;;488273;28;1424;-79
2023/08/23 00:17:24;;;;;;;6.18;2.80;;;;;;;;;;490636;28;1665;-79
2023/08/23 00:17:39;;;;;;;6.53;2.83;;;;;;;;;;485791;28;1320;-78
2023/08/23 00:17:58;;;;;;;7.55;2.90;;;;;;;;;;464581;28;1322;-79
2023/08/23 00:18:13;;;;;;;6.78;2.80;;;;;;;;;;465355;28;1492;-78
2023/08/23 00:18:29;;;;;;;6.97;2.85;;;;;;;;;;463671;28;1444;-78
2023/08/23 00:18:44;;;;;;;7.60;2.97;;;;;;;;;;462587;28;1217;-78
2023/08/23 00:19:03;;;;;;;5.25;2.85;;;;;;;;;;462729;28;1193;-79
2023/08/23 00:19:18;;;;;;;4.80;3.00;;;;;;;;;;476966;28;1231;-79
2023/08/23 00:19:34;;;;;;;5.07;2.88;;;;;;;;;;500801;28;1399;-78
2023/08/23 00:19:53;;;;;;;4.53;2.77;;;;;;;;;;465666;28;1157;-79
2023/08/23 00:20:10;;;;;;;5.80;3.00;;;;;;;;;;463255;28;1450;-79
2023/08/23 00:20:25;;;;;;;6.28;2.97;;;;;;;;;;489334;28;1307;-77
2023/08/23 00:20:40;;;;;;;4.73;2.90;;;;;;;;;;482209;28;1373;-79
2023/08/23 00:20:56;;;;;;;4.22;2.90;;;;;;;;;;494207;28;1339;-78
2023/08/23 00:21:12;;;;;;;6.37;3.00;;;;;;;;;;479265;28;1216;-79
2023/08/23 00:21:30;;;;;;;6.28;2.90;;;;;;;;;;498498;28;1195;-79
2023/08/23 00:21:45;;;;;;;5.72;2.92;;;;;;;;;;480417;28;1440;-79
2023/08/23 00:22:02;;;;;;;5.18;2.95;;;;;;;;;;499235;28;1347;-77
2023/08/23 00:22:17;;;;;;;4.70;2.92;;;;;;;;;;478010;28;1266;-78
2023/08/23 00:22:36;;;;;;;5.22;2.92;;;;;;;;;;499238;28;1038;-78
2023/08/23 00:22:52;;;;;;;6.28;3.00;;;;;;;;;;464013;28;1210;-79
2023/08/23 00:23:07;;;;;;;5.40;3.00;;;;;;;;;;464825;28;1315;-79
2023/08/23 00:23:23;;;;;;;4.75;3.13;;;;;;;;;;489890;28;1123;-78
2023/08/23 00:23:38;;;;;;;4.77;3.10;;;;;;;;;;489107;28;1077;-79
2023/08/23 00:23:56;;;;;;;4.10;2.88;;;;;;;;;;467235;28;1173;-79
2023/08/23 00:24:12;;;;;;;4.45;2.92;;;;;;;;;;468338;28;1188;-79
2023/08/23 00:24:28;;;;;;;6.90;3.20;;;;;;;;;;500616;28;1233;-78
2023/08/23 00:24:43;;;;;;;7.72;3.00;;;;;;;;;;484600;28;1336;-80
2023/08/23 00:24:59;;;;;;;6.23;3.07;;;;;;;;;;500519;28;1228;-78
2023/08/23 00:25:14;;;;;;;6.25;3.20;;;;;;;;;;476342;28;1438;-79
2023/08/23 00:25:30;;;;;;;5.77;3.00;;;;;;;;;;499038;28;1248;-78
2023/08/23 00:25:48;;;;;;;4.90;3.03;;;;;;;;;;471156;28;1208;-79
2023/08/23 00:26:12;;;;;;;5.03;3.10;;;;;;;;;;465128;28;1057;-79
2023/08/23 00:26:28;;;;;;;5.53;2.85;;;;;;;;;;495494;28;1048;-78
2023/08/23 00:26:43;;;;;;;6.15;3.00;;;;;;;;;;473746;29;1413;-79
2023/08/23 00:26:59;;;;;;;6.90;3.13;;;;;;;;;;462370;28;1397;-79
2023/08/23 00:27:15;;;;;;;7.13;3.10;;;;;;;;;;467712;28;1214;-78
2023/08/23 00:27:31;;;;;;;4.80;3.03;;;;;;;;;;463576;28;1181;-79
2023/08/23 00:27:46;;;;;;;4.28;3.08;;;;;;;;;;464209;28;1180;-79
2023/08/23 00:28:02;;;;;;;5.57;3.10;;;;;;;;;;463844;28;1129;-79
2023/08/23 00:28:19;;;;;;;5.95;3.00;;;;;;;;;;478922;28;1054;-79
2023/08/23 00:28:41;;;;;;;6.10;3.20;;;;;;;;;;497937;28;1550;-79
2023/08/23 00:28:56;;;;;;;5.85;3.03;;;;;;;;;;498317;28;1351;-78
2023/08/23 00:29:15;;;;;;;5.20;2.83;;;;;;;;;;479324;28;1249;-79
2023/08/23 00:29:30;;;;;;;6.68;2.92;;;;;;;;;;498011;28;1406;-78
2023/08/23 00:29:46;;;;;;;7.13;2.90;;;;;;;;;;471142;28;1372;-79
2023/08/23 00:30:04;;;;;;;5.55;2.88;;;;;;;;;;462371;28;1100;-79
2023/08/23 00:30:19;;;;;;;5.10;3.00;;;;;;;;;;478909;28;1397;-78
2023/08/23 00:30:38;;;;;;;5.20;2.93;;;;;;;;;;499007;28;1334;-78
2023/08/23 00:30:55;;;;;;;4.68;2.90;;;;;;;;;;467647;28;1539;-79
2023/08/23 00:31:10;;;;;;;3.70;2.70;;;;;;;;;;463534;28;1195;-79
2023/08/23 00:31:25;;;;;;;3.87;2.63;;;;;;;;;;495321;28;1116;-78
2023/08/23 00:31:44;;;;;;;6.83;2.90;;;;;;;;;;481726;29;1234;-79
2023/08/23 00:32:00;;;;;;;6.35;2.97;;;;;;;;;;463844;28;1173;-79
2023/08/23 00:32:15;;;;;;;4.25;2.90;;;;;;;;;;473155;28;1046;-78
2023/08/23 00:32:31;;;;;;;4.50;2.90;;;;;;;;;;501562;28;1088;-79
2023/08/23 00:32:46;;;;;;;5.72;3.00;;;;;;;;;;471031;28;1256;-79
2023/08/23 00:33:02;;;;;;;7.10;2.90;;;;;;;;;;499658;28;1375;-78
2023/08/23 00:33:17;;;;;;;6.50;2.78;;;;;;;;;;480203;28;1453;-78
2023/08/23 00:33:33;;;;;;;4.37;2.60;;;;;;;;;;499547;28;1394;-77
2023/08/23 00:33:48;;;;;;;4.15;2.80;;;;;;;;;;469218;28;1083;-78
2023/08/23 00:34:07;;;;;;;5.20;3.03;;;;;;;;;;463798;28;1077;-79
2023/08/23 00:34:22;;;;;;;5.70;3.00;;;;;;;;;;476599;28;1243;-79
2023/08/23 00:34:38;;;;;;;4.87;2.83;;;;;;;;;;492949;28;1404;-79
2023/08/23 00:34:53;;;;;;;4.95;2.88;;;;;;;;;;466334;28;2483;-79
2023/08/23 00:35:09;;;;;;;5.83;2.90;;;;;;;;;;471490;28;1121;-79
2023/08/23 00:35:25;;;;;;;6.38;3.00;;;;;;;;;;498503;28;1087;-79
2023/08/23 00:35:43;;;;;;;6.27;3.10;;;;;;;;;;484155;28;1441;-79
2023/08/23 00:35:59;;;;;;;6.57;3.20;;;;;;;;;;462193;28;1138;-79
2023/08/23 00:36:15;;;;;;;6.35;3.20;;;;;;;;;;473421;28;1043;-79
2023/08/23 00:36:30;;;;;;;5.33;3.10;;;;;;;;;;497303;28;1284;-79
2023/08/23 00:36:46;;;;;;;6.18;2.97;;;;;;;;;;471322;29;1045;-79
2023/08/23 00:37:02;;;;;;;6.30;3.00;;;;;;;;;;463313;28;1100;-80
2023/08/23 00:37:18;;;;;;;4.85;2.90;;;;;;;;;;479069;28;1129;-78
2023/08/23 00:37:33;;;;;;;4.33;2.90;;;;;;;;;;500119;28;1350;-78
2023/08/23 00:37:48;;;;;;;4.85;3.10;;;;;;;;;;468428;28;1057;-79
2023/08/23 00:38:04;;;;;;;5.70;2.87;;;;;;;;;;463205;28;1050;-79
2023/08/23 00:38:19;;;;;;;6.07;2.90;;;;;;;;;;481673;28;1156;-78
2023/08/23 00:38:35;;;;;;;4.63;3.00;;;;;;;;;;500817;28;1312;-78
2023/08/23 00:38:51;;;;;;;4.53;3.03;;;;;;;;;;464569;28;1217;-79
2023/08/23 00:39:09;;;;;;;4.10;3.00;;;;;;;;;;467172;28;1115;-79
2023/08/23 00:39:24;;;;;;;5.38;3.25;;;;;;;;;;491390;28;1057;-78
2023/08/23 00:40:00;;;;;;;6.93;3.27;;;;;;;;;;489276;28;1295;-79
2023/08/23 00:40:19;;;;;;;5.82;3.20;;;;;;;;;;476962;28;1531;-79
2023/08/23 00:40:34;;;;;;;7.43;3.50;;;;;;;;;;499193;28;1414;-79
2023/08/23 00:40:50;;;;;;;5.70;3.20;;;;;;;;;;465476;28;1102;-78
2023/08/23 00:41:06;;;;;;;4.70;3.10;;;;;;;;;;464005;28;1280;-79
2023/08/23 00:41:24;;;;;;;5.38;3.10;;;;;;;;;;486310;28;1240;-79
2023/08/23 00:42:00;;;;;;;5.03;3.10;;;;;;;;;;490068;28;952;-79
2023/08/23 00:42:16;;;;;;;5.22;3.20;;;;;;;;;;475029;28;1245;-78
2023/08/23 00:42:31;;;;;;;5.07;3.00;;;;;;;;;;501985;28;1524;-79
2023/08/23 00:42:53;;;;;;;4.40;2.95;;;;;;;;;;478474;28;1278;-78
2023/08/23 00:43:14;;;;;;;3.92;2.88;;;;;;;;;;467006;28;1192;-79
2023/08/23 00:43:29;;;;;;;5.45;3.05;;;;;;;;;;499994;28;1350;-78
2023/08/23 00:43:45;;;;;;;6.37;3.17;;;;;;;;;;478737;28;1038;-78
2023/08/23 00:44:03;;;;;;;5.67;2.90;;;;;;;;;;464398;28;1082;-79
2023/08/23 00:44:18;;;;;;;4.70;2.80;;;;;;;;;;477681;28;899;-78
2023/08/23 00:44:34;;;;;;;4.20;2.92;;;;;;;;;;479660;28;1420;-79
2023/08/23 00:44:49;;;;;;;4.20;2.90;;;;;;;;;;467692;28;1169;-79
2023/08/23 00:45:12;;;;;;;4.68;3.00;;;;;;;;;;466500;28;1260;-78
2023/08/23 00:45:30;;;;;;;7.55;3.17;;;;;;;;;;498788;28;1526;-78
2023/08/23 00:45:46;;;;;;;8.93;3.30;;;;;;;;;;475472;28;1416;-79
2023/08/23 00:46:04;;;;;;;6.30;3.25;;;;;;;;;;465188;28;1106;-79
2023/08/23 00:46:21;;;;;;;4.53;3.05;;;;;;;;;;479445;28;1173;-79
2023/08/23 00:46:38;;;;;;;6.00;3.08;;;;;;;;;;494334;29;1518;-79
2023/08/23 00:46:54;;;;;;;6.75;3.10;;;;;;;;;;462745;28;1221;-79
2023/08/23 00:47:10;;;;;;;4.68;3.00;;;;;;;;;;464522;28;1121;-79
2023/08/23 00:47:25;;;;;;;4.97;3.05;;;;;;;;;;492347;28;934;-79
2023/08/23 00:47:41;;;;;;;5.68;3.08;;;;;;;;;;487394;28;1180;-79
2023/08/23 00:47:57;;;;;;;7.70;3.03;;;;;;;;;;464441;28;1117;-79
2023/08/23 00:48:12;;;;;;;9.50;3.17;;;;;;;;;;465860;28;1073;-79
2023/08/23 00:48:28;;;;;;;6.55;2.90;;;;;;;;;;499266;28;1148;-78
2023/08/23 00:48:50;;;;;;;4.60;2.80;;;;;;;;;;483513;28;1168;-79
2023/08/23 00:49:07;;;;;;;5.00;2.92;;;;;;;;;;464552;28;1147;-78
2023/08/23 00:49:46;;;;;;;4.88;3.08;;;;;;;;;;483415;28;1198;-78
2023/08/23 00:50:03;;;;;;;4.00;2.90;;;;;;;;;;461484;28;1173;-79
2023/08/23 00:50:18;;;;;;;4.75;2.92;;;;;;;;;;479024;28;1149;-79
2023/08/23 00:50:54;;;;;;;5.53;3.10;;;;;;;;;;499159;28;1291;-78
2023/08/23 00:51:14;;;;;;;5.28;3.17;;;;;;;;;;467314;28;1197;-79
2023/08/23 00:51:30;;;;;;;5.78;3.10;;;;;;;;;;502137;28;1513;-79
2023/08/23 00:51:58;;;;;;;5.57;3.10;;;;;;;;;;481141;28;973;-80
2023/08/23 00:52:15;;;;;;;6.70;3.15;;;;;;;;;;469865;28;1182;-80
2023/08/23 00:52:31;;;;;;;6.35;3.10;;;;;;;;;;500872;28;1276;-78
2023/08/23 00:52:46;;;;;;;5.20;3.03;;;;;;;;;;480623;28;1006;-79
2023/08/23 00:53:02;;;;;;;5.18;2.97;;;;;;;;;;464817;28;1212;-79
2023/08/23 00:53:19;;;;;;;5.10;2.92;;;;;;;;;;476952;28;1161;-77
2023/08/23 00:53:36;;;;;;;5.35;3.10;;;;;;;;;;501385;28;1036;-78
2023/08/23 00:53:54;;;;;;;4.97;3.20;;;;;;;;;;467140;28;1272;-79
2023/08/23 00:54:11;;;;;;;4.53;3.15;;;;;;;;;;470668;28;935;-79
2023/08/23 00:54:26;;;;;;;4.90;3.10;;;;;;;;;;493932;28;1132;-79
2023/08/23 00:54:43;;;;;;;5.18;3.03;;;;;;;;;;486664;28;1950;-79
2023/08/23 00:54:59;;;;;;;4.72;2.88;;;;;;;;;;498055;28;1253;-78
2023/08/23 00:55:14;;;;;;;4.90;3.08;;;;;;;;;;470961;29;1446;-78
2023/08/23 00:55:33;;;;;;;5.50;3.07;;;;;;;;;;496562;29;1281;-78
2023/08/23 00:55:48;;;;;;;4.90;2.97;;;;;;;;;;469028;29;1437;-79
2023/08/23 00:56:13;;;;;;;3.60;3.03;;;;;;;;;;464214;29;1129;-79
2023/08/23 00:56:30;;;;;;;4.20;3.03;;;;;;;;;;496876;28;1407;-79
2023/08/23 00:56:49;;;;;;;3.70;2.95;;;;;;;;;;481441;28;1381;-80
2023/08/23 00:57:07;;;;;;;4.68;2.92;;;;;;;;;;468221;28;1145;-80
2023/08/23 00:57:23;;;;;;;5.13;2.80;;;;;;;;;;484288;28;1268;-79
2023/08/23 00:57:38;;;;;;;6.13;3.05;;;;;;;;;;495559;29;1334;-79
2023/08/23 00:57:54;;;;;;;6.10;3.40;;;;;;;;;;463704;29;1181;-80
2023/08/23 00:58:12;;;;;;;5.15;3.25;;;;;;;;;;465669;28;1245;-80
2023/08/23 00:58:29;;;;;;;5.07;3.20;;;;;;;;;;495042;28;927;-78
2023/08/23 00:58:45;;;;;;;5.25;3.00;;;;;;;;;;485463;28;1525;-80
2023/08/23 00:59:00;;;;;;;4.82;2.90;;;;;;;;;;463201;28;1306;-80
2023/08/23 00:59:16;;;;;;;4.17;3.00;;;;;;;;;;476682;28;1385;-78
2023/08/23 00:59:32;;;;;;;5.18;3.03;;;;;;;;;;500097;28;1263;-79
2023/08/23 00:59:48;;;;;;;6.10;2.92;;;;;;;;;;480281;28;1309;-79
2023/08/23 01:00:04;;;;;;;5.00;2.92;;;;;;;;;;464620;28;1148;-78
2023/08/23 01:00:20;;;;;;;4.30;3.10;;;;;;;;;;471446;28;1114;-78
2023/08/23 01:00:36;;;;;;;3.95;3.10;;;;;;;;;;498763;28;1493;-79
2023/08/23 01:00:54;;;;;;;3.70;3.00;;;;;;;;;;467462;28;1433;-79
2023/08/23 01:01:12;;;;;;;4.25;3.08;;;;;;;;;;464568;28;1280;-80
2023/08/23 01:01:31;;;;;;;5.45;2.95;;;;;;;;;;466611;28;1312;-79
2023/08/23 01:01:47;;;;;;;4.18;2.80;;;;;;;;;;461683;28;1236;-79
2023/08/23 01:02:05;;;;;;;5.15;3.05;;;;;;;;;;481813;28;1290;-79
2023/08/23 01:02:20;;;;;;;7.15;3.10;;;;;;;;;;479538;28;1233;-78
2023/08/23 01:02:37;;;;;;;7.03;3.10;;;;;;;;;;501464;28;1303;-78
2023/08/23 01:02:53;;;;;;;5.70;3.10;;;;;;;;;;486300;28;1321;-78
2023/08/23 01:03:09;;;;;;;4.75;3.00;;;;;;;;;;487626;28;1032;-79
2023/08/23 01:03:24;;;;;;;6.60;3.22;;;;;;;;;;494216;28;1277;-78
2023/08/23 01:03:39;;;;;;;6.27;3.27;;;;;;;;;;499808;28;1291;-79
2023/08/23 01:03:57;;;;;;;4.03;3.00;;;;;;;;;;500110;28;1085;-77
2023/08/23 01:04:12;;;;;;;3.95;2.95;;;;;;;;;;473488;28;1320;-79
2023/08/23 01:04:28;;;;;;;4.13;2.90;;;;;;;;;;497207;28;1169;-79
2023/08/23 01:04:46;;;;;;;5.07;3.13;;;;;;;;;;486715;28;1153;-79
2023/08/23 01:05:02;;;;;;;5.57;3.20;;;;;;;;;;463713;28;1192;-79
2023/08/23 01:05:19;;;;;;;5.53;3.20;;;;;;;;;;477204;28;1153;-78
2023/08/23 01:05:44;;;;;;;5.40;3.20;;;;;;;;;;499925;28;1097;-79
2023/08/23 01:05:59;;;;;;;6.95;3.50;;;;;;;;;;464544;28;1174;-79
2023/08/23 01:06:35;;;;;;;4.88;3.30;;;;;;;;;;467147;28;1186;-79
2023/08/23 01:07:03;;;;;;;5.80;3.05;;;;;;;;;;469533;28;1408;-80
2023/08/23 01:07:29;;;;;;;6.22;3.42;;;;;;;;;;482040;28;1104;-78
2023/08/23 01:08:27;;;;;;;5.63;3.20;;;;;;;;;;489121;28;1440;-79
2023/08/23 01:09:10;;;;;;;5.30;3.20;;;;;;;;;;491840;28;1313;-79
2023/08/23 01:09:48;;;;;;;5.80;3.20;;;;;;;;;;494195;28;1495;-78
2023/08/23 01:10:12;;;;;;;5.43;3.25;;;;;;;;;;476050;28;1150;-79
2023/08/23 01:11:13;;;;;;;4.25;3.17;;;;;;;;;;498059;28;1265;-77
2023/08/23 01:11:39;;;;;;;5.85;3.20;;;;;;;;;;495579;28;1770;-80
2023/08/23 01:12:06;;;;;;;5.10;3.42;;;;;;;;;;462421;28;1254;-80
2023/08/23 01:12:50;;;;;;;4.53;3.20;;;;;;;;;;484678;28;1301;-79
2023/08/23 01:13:27;;;;;;;6.15;3.30;;;;;;;;;;493881;28;2190;-79
2023/08/23 01:13:50;;;;;;;5.85;3.25;;;;;;;;;;493493;28;1393;-79
2023/08/23 01:14:29;;;;;;;5.82;3.38;;;;;;;;;;465980;28;1232;-79
2023/08/23 01:14:56;;;;;;;5.15;3.10;;;;;;;;;;488280;28;2032;-80
2023/08/23 01:15:13;;;;;;;5.75;3.40;;;;;;;;;;466027;28;1093;-78
2023/08/23 01:15:33;;;;;;;5.90;3.45;;;;;;;;;;466232;28;1157;-79
2023/08/23 01:15:51;;;;;;;4.80;3.42;;;;;;;;;;464250;28;1122;-80
2023/08/23 01:16:19;;;;;;;6.45;3.65;;;;;;;;;;464691;28;1133;-79
2023/08/23 01:16:36;;;;;;;3.88;3.03;;;;;;;;;;469261;28;1302;-79
2023/08/23 01:16:53;;;;;;;6.25;3.08;;;;;;;;;;463597;28;1126;-79
2023/08/23 01:17:12;;;;;;;8.18;3.30;;;;;;;;;;479627;28;1113;-80
2023/08/23 01:17:28;;;;;;;8.18;3.28;;;;;;;;;;487382;28;1134;-79
2023/08/23 01:17:47;;;;;;;6.20;3.30;;;;;;;;;;490582;28;1283;-79
2023/08/23 01:18:02;;;;;;;5.43;3.30;;;;;;;;;;499932;28;1315;-78
2023/08/23 01:18:19;;;;;;;5.78;3.20;;;;;;;;;;478701;28;1116;-79
2023/08/23 01:18:35;;;;;;;5.32;3.28;;;;;;;;;;498260;28;1322;-78
2023/08/23 01:18:52;;;;;;;4.78;3.20;;;;;;;;;;473844;29;1226;-79
2023/08/23 01:19:50;;;;;;;5.15;3.10;;;;;;;;;;463889;28;1141;-79
2023/08/23 01:20:06;;;;;;;5.68;3.28;;;;;;;;;;469139;28;1106;-79
2023/08/23 01:20:22;;;;;;;4.50;3.35;;;;;;;;;;489194;28;1880;-78
2023/08/23 01:20:38;;;;;;;5.97;3.40;;;;;;;;;;503102;28;1322;-79
2023/08/23 01:20:53;;;;;;;5.97;3.30;;;;;;;;;;472040;28;1230;-79
2023/08/23 01:21:10;;;;;;;5.20;3.37;;;;;;;;;;470169;28;1110;-80
2023/08/23 01:21:37;;;;;;;7.10;3.40;;;;;;;;;;487474;28;1227;-78
2023/08/23 01:21:56;;;;;;;4.43;3.20;;;;;;;;;;478811;28;1342;-80
2023/08/23 01:22:16;;;;;;;5.50;3.50;;;;;;;;;;472502;28;1472;-79
2023/08/23 01:22:35;;;;;;;5.82;3.42;;;;;;;;;;498942;28;1035;-79
2023/08/23 01:23:01;;;;;;;7.03;3.53;;;;;;;;;;476961;28;1670;-80
2023/08/23 01:23:17;;;;;;;4.63;3.33;;;;;;;;;;475581;28;1210;-78
2023/08/23 01:23:33;;;;;;;4.18;3.40;;;;;;;;;;500272;28;1213;-78
2023/08/23 01:23:49;;;;;;;4.35;3.50;;;;;;;;;;483273;28;1353;-79
2023/08/23 01:24:08;;;;;;;4.85;3.58;;;;;;;;;;467802;28;1226;-79
2023/08/23 01:24:24;;;;;;;5.68;3.50;;;;;;;;;;489748;28;1375;-77
2023/08/23 01:24:41;;;;;;;6.07;3.58;;;;;;;;;;501621;28;1355;-78
2023/08/23 01:24:57;;;;;;;4.63;3.45;;;;;;;;;;462933;28;1186;-79
2023/08/23 01:25:14;;;;;;;4.40;3.40;;;;;;;;;;460982;28;1209;-79
2023/08/23 01:25:29;;;;;;;4.80;3.50;;;;;;;;;;492146;28;1106;-78
2023/08/23 01:25:52;;;;;;;5.47;3.33;;;;;;;;;;488268;28;974;-77
2023/08/23 01:26:07;;;;;;;7.45;3.92;;;;;;;;;;464594;28;1229;-79
2023/08/23 01:26:22;;;;;;;6.43;3.80;;;;;;;;;;476328;28;1124;-78
2023/08/23 01:26:41;;;;;;;5.30;3.67;;;;;;;;;;500325;28;1299;-78
2023/08/23 01:26:57;;;;;;;7.68;3.70;;;;;;;;;;465604;28;1213;-79
2023/08/23 01:27:12;;;;;;;7.43;3.80;;;;;;;;;;466556;28;1173;-80
2023/08/23 01:27:28;;;;;;;5.47;3.50;;;;;;;;;;487026;28;1235;-78
2023/08/23 01:27:43;;;;;;;4.97;3.40;;;;;;;;;;493586;28;1266;-79
2023/08/23 01:28:02;;;;;;;5.90;3.50;;;;;;;;;;464997;28;1049;-78
2023/08/23 01:28:18;;;;;;;6.20;3.60;;;;;;;;;;475206;28;1314;-78
2023/08/23 01:28:33;;;;;;;4.88;3.40;;;;;;;;;;499874;28;1275;-77
2023/08/23 01:28:51;;;;;;;4.40;3.30;;;;;;;;;;481394;28;1176;-79
2023/08/23 01:29:07;;;;;;;5.47;3.50;;;;;;;;;;466746;28;1064;-78
2023/08/23 01:29:22;;;;;;;5.43;3.60;;;;;;;;;;475084;28;1269;-78
2023/08/23 01:29:37;;;;;;;5.70;3.60;;;;;;;;;;499521;28;1450;-77
2023/08/23 01:29:53;;;;;;;4.90;3.40;;;;;;;;;;474772;28;1367;-79
2023/08/23 01:30:09;;;;;;;4.65;3.20;;;;;;;;;;468445;28;1145;-79
2023/08/23 01:30:27;;;;;;;5.55;3.22;;;;;;;;;;484780;28;1205;-78
2023/08/23 01:30:43;;;;;;;6.45;3.50;;;;;;;;;;479335;28;1263;-78
2023/08/23 01:31:02;;;;;;;7.07;3.65;;;;;;;;;;477527;28;1220;-79
2023/08/23 01:31:20;;;;;;;7.07;3.60;;;;;;;;;;467203;28;1198;-79
2023/08/23 01:31:42;;;;;;;5.28;3.30;;;;;;;;;;465645;28;1232;-79
2023/08/23 01:32:10;;;;;;;6.15;3.70;;;;;;;;;;466689;28;1220;-79
2023/08/23 01:32:33;;;;;;;4.47;3.33;;;;;;;;;;493314;28;1152;-78
2023/08/23 01:33:09;;;;;;;4.75;3.30;;;;;;;;;;495670;28;1030;-78
2023/08/23 01:33:36;;;;;;;5.18;3.55;;;;;;;;;;517984;28;1396;-78
2023/08/23 01:34:00;;;;;;;4.70;3.30;;;;;;;;;;516846;28;1259;-78
2023/08/23 01:34:24;;;;;;;4.43;3.08;;;;;;;;;;516418;28;1389;-78
2023/08/23 01:34:46;;;;;;;4.45;3.05;;;;;;;;;;516912;28;1268;-77
2023/08/23 01:35:27;;;;;;;4.00;3.08;;;;;;;;;;518028;28;1069;-78
2023/08/23 01:36:05;;;;;;;5.43;3.30;;;;;;;;;;511657;28;1380;-77
2023/08/23 01:36:20;;;;;;;4.47;3.42;;;;;;;;;;518123;28;1260;-78
2023/08/23 01:36:41;;;;;;;4.10;3.20;;;;;;;;;;516205;28;1263;-78
2023/08/23 01:36:59;;;;;;;4.75;3.13;;;;;;;;;;514740;28;986;-77
2023/08/23 01:37:15;;;;;;;5.20;3.35;;;;;;;;;;513863;28;1134;-76
2023/08/23 01:37:32;;;;;;;4.78;3.13;;;;;;;;;;497272;28;1014;-77
2023/08/23 01:37:52;;;;;;;5.05;3.00;;;;;;;;;;478217;28;1335;-77
2023/08/23 01:38:09;;;;;;;5.13;3.15;;;;;;;;;;470302;28;1599;-78
2023/08/23 01:38:26;;;;;;;4.60;3.30;;;;;;;;;;499459;28;1100;-78
2023/08/23 01:38:42;;;;;;;4.55;3.20;;;;;;;;;;493501;28;1310;-79
2023/08/23 01:38:58;;;;;;;5.32;3.20;;;;;;;;;;468919;28;1125;-78
2023/08/23 01:39:13;;;;;;;5.38;3.30;;;;;;;;;;468429;28;1362;-79
2023/08/23 01:39:29;;;;;;;6.20;3.45;;;;;;;;;;503787;28;1256;-77
2023/08/23 01:39:46;;;;;;;6.13;3.40;;;;;;;;;;482606;28;1323;-78
2023/08/23 01:40:02;;;;;;;4.88;3.55;;;;;;;;;;467187;28;1232;-78
2023/08/23 01:40:18;;;;;;;4.93;3.60;;;;;;;;;;469971;28;1306;-79
2023/08/23 01:40:35;;;;;;;4.90;3.40;;;;;;;;;;469286;28;1159;-79
2023/08/23 01:41:01;;;;;;;5.78;3.42;;;;;;;;;;470066;28;1338;-79
2023/08/23 01:41:16;;;;;;;6.03;3.60;;;;;;;;;;475474;28;1109;-79
2023/08/23 01:41:32;;;;;;;5.35;3.38;;;;;;;;;;502527;28;1184;-77
2023/08/23 01:41:49;;;;;;;4.78;3.30;;;;;;;;;;494761;28;1366;-78
2023/08/23 01:42:06;;;;;;;5.65;3.55;;;;;;;;;;494862;28;1419;-78
2023/08/23 01:42:42;;;;;;;4.90;3.50;;;;;;;;;;472585;28;1162;-79
2023/08/23 01:42:57;;;;;;;4.80;3.22;;;;;;;;;;464833;28;1211;-79
2023/08/23 01:43:13;;;;;;;4.28;3.20;;;;;;;;;;468978;28;1185;-78
2023/08/23 01:43:32;;;;;;;5.93;3.50;;;;;;;;;;469228;28;1181;-79
2023/08/23 01:43:50;;;;;;;5.88;3.45;;;;;;;;;;466086;28;1061;-79
2023/08/23 01:44:09;;;;;;;4.40;3.40;;;;;;;;;;463901;28;1157;-79
2023/08/23 01:44:50;;;;;;;5.18;3.40;;;;;;;;;;485292;28;1235;-78
2023/08/23 01:45:07;;;;;;;4.60;3.33;;;;;;;;;;469262;28;1117;-79
2023/08/23 01:45:22;;;;;;;5.20;3.60;;;;;;;;;;487802;28;1476;-78
2023/08/23 01:45:38;;;;;;;4.65;3.50;;;;;;;;;;502436;28;1273;-78
2023/08/23 01:45:54;;;;;;;5.35;3.22;;;;;;;;;;467980;28;1143;-80
2023/08/23 01:46:13;;;;;;;6.03;3.50;;;;;;;;;;467451;28;1265;-79
2023/08/23 01:47:09;;;;;;;4.40;3.50;;;;;;;;;;492173;28;1414;-78
2023/08/23 01:47:24;;;;;;;5.18;3.60;;;;;;;;;;492537;28;1358;-78
2023/08/23 01:47:42;;;;;;;5.87;3.70;;;;;;;;;;494020;29;1265;-79
2023/08/23 01:48:04;;;;;;;6.93;3.80;;;;;;;;;;462778;28;1265;-80
2023/08/23 01:48:22;;;;;;;5.60;3.58;;;;;;;;;;463782;28;1188;-79
2023/08/23 01:48:38;;;;;;;5.00;3.38;;;;;;;;;;464019;28;1564;-80
2023/08/23 01:48:54;;;;;;;4.47;3.30;;;;;;;;;;464280;28;1239;-78
2023/08/23 01:49:13;;;;;;;3.83;3.30;;;;;;;;;;469768;28;1232;-80
2023/08/23 01:49:28;;;;;;;3.60;3.03;;;;;;;;;;467939;28;1008;-79
2023/08/23 01:49:54;;;;;;;5.37;3.23;;;;;;;;;;477721;28;1045;-78
2023/08/23 01:50:10;;;;;;;10.27;3.83;;;;;;;;;;465127;28;1157;-79
2023/08/23 01:50:25;;;;;;;7.93;3.70;;;;;;;;;;496942;29;1165;-78
2023/08/23 01:50:41;;;;;;;7.03;3.70;;;;;;;;;;493648;28;1532;-79
2023/08/23 01:50:57;;;;;;;7.70;3.70;;;;;;;;;;497670;28;1359;-78
2023/08/23 01:51:12;;;;;;;7.28;3.60;;;;;;;;;;479939;28;981;-79
2023/08/23 01:51:30;;;;;;;7.33;3.50;;;;;;;;;;466026;29;1253;-79
2023/08/23 01:51:46;;;;;;;7.30;3.60;;;;;;;;;;463645;28;1253;-80
2023/08/23 01:52:02;;;;;;;6.85;3.70;;;;;;;;;;463397;28;1134;-80
2023/08/23 01:52:17;;;;;;;6.03;3.88;;;;;;;;;;466508;28;1248;-79
2023/08/23 01:52:36;;;;;;;6.20;4.00;;;;;;;;;;466516;29;941;-79
2023/08/23 01:52:51;;;;;;;6.45;3.97;;;;;;;;;;479686;28;1078;-79
2023/08/23 01:53:07;;;;;;;6.05;3.90;;;;;;;;;;484831;28;1299;-80
2023/08/23 01:53:26;;;;;;;7.80;3.73;;;;;;;;;;469701;28;1215;-81
2023/08/23 01:53:44;;;;;;;7.15;3.70;;;;;;;;;;466574;28;1224;-80
2023/08/23 01:54:00;;;;;;;6.00;3.92;;;;;;;;;;464376;28;1154;-79
2023/08/23 01:54:20;;;;;;;7.03;3.80;;;;;;;;;;467291;28;1315;-80
2023/08/23 01:54:36;;;;;;;7.13;4.10;;;;;;;;;;496530;28;1441;-79
2023/08/23 01:54:54;;;;;;;6.47;4.07;;;;;;;;;;470712;29;1990;-79